Bayamon, PR

7:48 PM AST on August 16, 2017 (GMT -0400)
Ron Weather PR | | Change Station

Elev 325 ft 18.33 °N, 66.15 °W | Updated 24 seconds ago

Overcast
Overcast
76.4 °F
Feels Like 77 °F
N
0.0
Wind Variable Wind from ESE

Today
High -- | Low -- °F
--% Chance of Precip.
Yesterday
High -- | Low -- °F
Precip. -- in
Pressure 29.95 in
Visibility 10.0 miles
Clouds Few 2500 ft
Scattered Clouds 7500 ft
Mostly Cloudy 10000 ft
Heat Index 77 °F
Dew Point 72 °F
Humidity 88%
Rainfall 0.21 in
Snow Depth Not available.
6:06 AM 6:50 PM
Waning Crescent, 28% visible
METAR TJSJ 162256Z 09011KT 10SM FEW025 SCT075 BKN100 27/24 A2995 RMK AO2 RAB17E27 SLP140 SHRA DSNT SE S SW W P0000 T02720244 $
Pressure 29.95 in
Visibility 10.0 miles
Clouds Few 2500 ft
Scattered Clouds 7500 ft
Mostly Cloudy 10000 ft
Heat Index 77 °F
Dew Point 72 °F
Humidity 88%
Rainfall 0.21 in
Snow Depth Not available.
6:06 AM 6:50 PM
Waning Crescent, 28% visible
METAR TJSJ 162256Z 09011KT 10SM FEW025 SCT075 BKN100 27/24 A2995 RMK AO2 RAB17E27 SLP140 SHRA DSNT SE S SW W P0000 T02720244 $

Get Severe Weather Alerts

Thanks for signing up!

Be on the lookout for a verification email in your inbox.

You'll start receiving the daily forecast at 6 AM.

×

10-Day Weather Forecast

Almanac

Astronomy

Aug. 16, 2017 Rise Set
Actual Time
Civil Twilight
Nautical Twilight
Astronomical Twilight
Moon
Length of Visible Light
Length of Day
Tomorrow will be .
, % of the Moon is Illuminated

Today's Extremes

State Highs State Lows

Community

WunderPhotos

Category 6

Welcome to Category 6. This is the collective home for Weather Underground's featured writeups by Dr. Jeff Masters (right), Bob Henson (left), Chris Burt, and other regular contributors.

Nearby

Air Quality

  Air Quality AQ Index Pollutant
Not available.

Snow Depth

Station Depth Elevation

Earthquake Activity

City Distance Mag. Time & Date
Minimum magnitude displayed is 2.5.

Coastal Water Temperatures

Place Temperature

Stations

Nearby Weather Stations

Station Location Temp. Windchill Dew Point Humidity Wind Precip. Elev Updated Type
                   

Watches & Warnings

There are currently no watches in effect.